createdAt,value
2023-03-29T00:01:01.633Z,55.20
2023-03-29T00:03:31.235Z,55.30
2023-03-29T00:06:03.440Z,55.20
2023-03-29T00:08:35.067Z,55.30
2023-03-29T00:11:03.960Z,55.40
2023-03-29T00:13:32.803Z,55.40
2023-03-29T00:16:01.353Z,55.40
2023-03-29T00:18:29.478Z,55.40
2023-03-29T00:20:59.156Z,55.40
2023-03-29T00:23:28.313Z,55.50
2023-03-29T00:25:58.122Z,55.70
2023-03-29T00:28:27.000Z,55.70
2023-03-29T00:30:55.630Z,55.80
2023-03-29T00:33:24.206Z,56.00
2023-03-29T00:35:54.857Z,56.10
2023-03-29T00:38:23.031Z,56.30
2023-03-29T00:40:51.590Z,56.30
2023-03-29T00:43:21.040Z,56.30
2023-03-29T00:45:49.758Z,56.50
2023-03-29T00:48:22.316Z,56.80
2023-03-29T00:50:55.113Z,56.90
2023-03-29T00:53:27.809Z,56.80
2023-03-29T00:56:01.736Z,56.90
2023-03-29T00:58:37.349Z,57.00
2023-03-29T01:01:09.170Z,57.20
2023-03-29T01:03:46.886Z,57.10
2023-03-29T01:06:19.854Z,57.20
2023-03-29T01:08:52.605Z,57.20
2023-03-29T01:11:26.512Z,57.30
2023-03-29T01:13:59.806Z,57.40
2023-03-29T01:16:30.336Z,57.40
2023-03-29T01:18:59.780Z,57.50
2023-03-29T01:21:33.060Z,57.50
2023-03-29T01:24:18.143Z,57.70
2023-03-29T01:26:59.100Z,57.60
2023-03-29T01:29:33.703Z,57.60
2023-03-29T01:32:07.410Z,57.50
2023-03-29T01:34:39.698Z,57.70
2023-03-29T01:37:14.101Z,57.80
2023-03-29T01:39:42.486Z,57.90
2023-03-29T01:42:21.943Z,57.80
2023-03-29T01:44:58.698Z,57.90
2023-03-29T01:47:32.583Z,58.20
2023-03-29T01:50:09.463Z,58.30
2023-03-29T01:52:44.117Z,58.50
2023-03-29T01:55:17.352Z,58.40
2023-03-29T01:57:48.337Z,58.70
2023-03-29T02:00:22.028Z,59.90
2023-03-29T02:02:52.647Z,60.00
2023-03-29T02:05:23.361Z,59.80
2023-03-29T02:07:52.918Z,59.90
2023-03-29T02:10:22.849Z,60.60
2023-03-29T02:12:52.540Z,60.90
2023-03-29T02:15:23.548Z,61.30
2023-03-29T02:17:52.472Z,61.80
2023-03-29T02:20:23.530Z,61.90
2023-03-29T02:22:57.935Z,62.50
2023-03-29T02:25:26.520Z,62.80
2023-03-29T02:27:55.482Z,63.00
2023-03-29T02:30:28.669Z,63.00
2023-03-29T02:33:03.352Z,62.80
2023-03-29T02:35:36.375Z,63.60
2023-03-29T02:38:07.863Z,63.60
2023-03-29T02:40:37.901Z,64.00
2023-03-29T02:43:08.840Z,64.20
2023-03-29T02:45:40.359Z,64.40
2023-03-29T02:48:13.576Z,64.70
2023-03-29T02:50:44.074Z,64.90
2023-03-29T02:53:16.696Z,65.10
2023-03-29T02:55:46.918Z,66.00
2023-03-29T02:58:16.277Z,65.60
2023-03-29T03:00:49.207Z,67.00
2023-03-29T03:03:17.951Z,65.90
2023-03-29T03:05:46.087Z,65.90
2023-03-29T03:08:15.031Z,66.20
2023-03-29T03:10:43.299Z,66.30
2023-03-29T03:13:11.450Z,66.10
2023-03-29T03:15:42.859Z,66.30
2023-03-29T03:18:13.233Z,66.30
2023-03-29T03:20:41.471Z,66.70
2023-03-29T03:23:10.757Z,66.70
2023-03-29T03:25:39.546Z,66.60
2023-03-29T03:28:07.951Z,66.60
2023-03-29T03:30:37.509Z,66.70
2023-03-29T03:33:06.115Z,66.50
2023-03-29T03:35:36.236Z,67.10
2023-03-29T03:38:04.297Z,67.30
2023-03-29T03:40:33.095Z,67.00
2023-03-29T03:43:01.725Z,67.00
2023-03-29T03:45:30.416Z,67.60
2023-03-29T03:47:58.986Z,67.60
2023-03-29T03:50:27.076Z,67.40
2023-03-29T03:52:56.963Z,67.30
2023-03-29T03:55:25.537Z,67.20
2023-03-29T03:57:53.589Z,67.10
2023-03-29T04:00:23.366Z,67.30
2023-03-29T04:02:52.163Z,67.10
2023-03-29T04:05:20.713Z,67.60
2023-03-29T04:07:49.347Z,67.40
2023-03-29T04:10:18.968Z,67.40
2023-03-29T04:12:47.572Z,67.80
2023-03-29T04:15:18.285Z,67.60
2023-03-29T04:17:46.463Z,67.80
2023-03-29T04:20:15.470Z,68.00
2023-03-29T04:22:43.531Z,68.20
2023-03-29T04:25:12.285Z,68.10
2023-03-29T04:27:41.888Z,68.20
2023-03-29T04:30:11.375Z,68.20
2023-03-29T04:32:39.960Z,68.20
2023-03-29T04:35:08.524Z,68.40
2023-03-29T04:37:37.400Z,68.40
2023-03-29T04:40:09.027Z,68.20
2023-03-29T04:42:37.871Z,68.40
2023-03-29T04:45:08.219Z,68.30
2023-03-29T04:47:37.016Z,68.60
2023-03-29T04:50:06.158Z,68.60
2023-03-29T04:52:34.809Z,68.90
2023-03-29T04:55:03.859Z,68.70
2023-03-29T04:57:32.452Z,68.70
2023-03-29T05:00:01.240Z,68.70
2023-03-29T05:02:32.472Z,68.90
2023-03-29T05:05:01.108Z,69.10
2023-03-29T05:07:29.805Z,69.00
2023-03-29T05:09:58.396Z,68.90
2023-03-29T05:12:26.932Z,68.90
2023-03-29T05:14:55.058Z,69.00
2023-03-29T05:17:23.671Z,68.90
2023-03-29T05:19:54.241Z,68.90
2023-03-29T05:22:23.970Z,68.90
2023-03-29T05:24:52.923Z,68.80
2023-03-29T05:27:23.317Z,69.10
2023-03-29T05:29:51.367Z,69.00
2023-03-29T05:32:19.778Z,69.00
2023-03-29T05:34:47.829Z,68.80
2023-03-29T05:37:17.987Z,68.90
2023-03-29T05:39:46.217Z,69.20
2023-03-29T05:42:16.101Z,69.20
2023-03-29T05:44:44.249Z,69.10
2023-03-29T05:47:12.473Z,69.30
2023-03-29T05:49:40.845Z,69.40
2023-03-29T05:52:08.976Z,69.40
2023-03-29T05:54:38.532Z,69.40
2023-03-29T05:57:07.598Z,69.80
2023-03-29T05:59:35.695Z,69.80
2023-03-29T06:02:05.528Z,69.90
2023-03-29T06:04:34.178Z,70.20
2023-03-29T06:07:04.579Z,70.30
2023-03-29T06:09:34.163Z,70.30
2023-03-29T06:12:04.061Z,70.20
2023-03-29T06:14:33.165Z,70.10
2023-03-29T06:17:02.166Z,70.30
2023-03-29T06:19:30.421Z,70.30
2023-03-29T06:21:59.141Z,70.30
2023-03-29T06:24:27.272Z,70.30
2023-03-29T06:26:56.889Z,70.20
2023-03-29T06:29:26.360Z,70.30
2023-03-29T06:31:56.248Z,70.00
2023-03-29T06:34:24.888Z,70.00
2023-03-29T06:36:52.975Z,70.30
2023-03-29T06:39:21.478Z,70.30
2023-03-29T06:41:49.938Z,70.20
2023-03-29T06:44:18.566Z,71.00
2023-03-29T06:46:48.039Z,70.40
2023-03-29T06:49:16.664Z,70.10
2023-03-29T06:51:44.716Z,69.80
2023-03-29T06:54:13.787Z,70.00
2023-03-29T06:56:42.141Z,70.00
2023-03-29T06:59:10.568Z,70.00
2023-03-29T07:01:39.251Z,69.70
2023-03-29T07:04:09.864Z,69.90
2023-03-29T07:06:39.244Z,69.90
2023-03-29T07:09:07.890Z,69.80
2023-03-29T07:11:36.424Z,70.00
2023-03-29T07:14:04.531Z,69.60
2023-03-29T07:16:32.785Z,69.70
2023-03-29T07:19:01.539Z,69.90
2023-03-29T07:21:32.527Z,69.90
2023-03-29T07:24:01.761Z,70.00
2023-03-29T07:26:30.694Z,69.90
2023-03-29T07:28:58.911Z,69.80
2023-03-29T07:31:29.349Z,70.00
2023-03-29T07:33:57.922Z,69.80
2023-03-29T07:36:29.019Z,69.90
2023-03-29T07:39:02.329Z,70.00
2023-03-29T07:41:30.958Z,69.70
2023-03-29T07:44:00.562Z,69.70
2023-03-29T07:46:29.583Z,70.10
2023-03-29T07:48:58.560Z,70.00
2023-03-29T07:51:27.455Z,69.80
2023-03-29T07:53:56.200Z,70.00
2023-03-29T07:56:26.535Z,69.70
2023-03-29T07:58:54.655Z,69.50
2023-03-29T08:01:22.725Z,69.10
2023-03-29T08:03:50.930Z,69.10
2023-03-29T08:06:19.079Z,68.90
2023-03-29T08:08:47.709Z,68.40
2023-03-29T08:11:15.785Z,68.40
2023-03-29T08:13:45.666Z,68.30
2023-03-29T08:16:14.251Z,68.20
2023-03-29T08:18:42.446Z,68.00
2023-03-29T08:21:11.688Z,68.20
2023-03-29T08:23:40.224Z,67.90
2023-03-29T08:26:09.820Z,67.70
2023-03-29T08:28:38.679Z,67.60
2023-03-29T08:31:08.392Z,67.60
2023-03-29T08:33:36.775Z,67.60
2023-03-29T08:36:06.510Z,67.30
2023-03-29T08:38:34.698Z,67.40
2023-03-29T08:41:03.438Z,67.50
2023-03-29T08:43:53.372Z,67.40
2023-03-29T08:46:35.114Z,67.50
2023-03-29T08:49:06.940Z,67.10
2023-03-29T08:51:39.914Z,67.00
2023-03-29T08:54:13.415Z,66.80
2023-03-29T08:56:47.121Z,66.40
2023-03-29T08:59:21.107Z,66.10
2023-03-29T09:01:53.898Z,66.10
2023-03-29T09:04:30.975Z,65.90
2023-03-29T09:06:59.480Z,65.80
2023-03-29T09:09:34.000Z,65.70
2023-03-29T09:12:13.723Z,65.40
2023-03-29T09:14:59.110Z,65.40
2023-03-29T09:17:40.056Z,65.30
2023-03-29T09:20:21.711Z,64.80
2023-03-29T09:23:00.258Z,64.70
2023-03-29T09:25:50.870Z,64.40
2023-03-29T09:28:27.634Z,64.30
2023-03-29T09:31:01.417Z,64.20
2023-03-29T09:33:37.301Z,64.20
2023-03-29T09:36:12.804Z,64.00
2023-03-29T09:38:43.545Z,64.00
2023-03-29T09:41:22.750Z,63.80
2023-03-29T09:43:52.936Z,63.50
2023-03-29T09:46:25.443Z,63.40
2023-03-29T09:48:56.532Z,62.90
2023-03-29T09:51:28.000Z,62.90
2023-03-29T09:53:57.092Z,62.90
2023-03-29T09:56:25.794Z,62.80
2023-03-29T09:58:54.447Z,61.90
2023-03-29T10:01:23.534Z,62.10
2023-03-29T10:03:53.827Z,62.10
2023-03-29T10:06:26.032Z,62.00
2023-03-29T10:08:57.903Z,61.70
2023-03-29T10:11:32.336Z,61.70
2023-03-29T10:14:03.991Z,61.80
2023-03-29T10:16:37.684Z,61.90
2023-03-29T10:19:21.702Z,61.90
2023-03-29T10:21:52.928Z,61.70
2023-03-29T10:24:22.778Z,61.70
2023-03-29T10:26:55.940Z,61.40
2023-03-29T10:29:25.082Z,61.00
2023-03-29T10:31:53.706Z,61.00
2023-03-29T10:34:26.028Z,61.00
2023-03-29T10:37:00.353Z,60.90
2023-03-29T10:39:32.339Z,60.90
2023-03-29T10:42:01.497Z,60.80
2023-03-29T10:44:33.517Z,60.60
2023-03-29T10:47:10.633Z,60.80
2023-03-29T10:49:43.207Z,60.60
2023-03-29T10:52:14.951Z,60.80
2023-03-29T10:54:43.787Z,60.80
2023-03-29T10:57:17.616Z,60.80
2023-03-29T10:59:57.860Z,60.70
2023-03-29T11:02:52.771Z,60.80
2023-03-29T11:05:31.485Z,60.80
2023-03-29T11:08:30.425Z,60.60
2023-03-29T11:11:09.426Z,60.40
2023-03-29T11:13:46.437Z,60.40
2023-03-29T11:16:25.993Z,60.30
2023-03-29T11:19:18.585Z,60.30
2023-03-29T11:21:52.574Z,60.20
2023-03-29T11:24:48.125Z,60.20
2023-03-29T11:27:27.430Z,60.00
2023-03-29T11:30:14.552Z,60.00
2023-03-29T11:32:50.733Z,60.00
2023-03-29T11:35:39.190Z,59.90
2023-03-29T11:38:13.971Z,59.80
2023-03-29T11:40:55.023Z,59.90
2023-03-29T11:43:30.452Z,60.00
2023-03-29T11:46:03.553Z,59.80
2023-03-29T11:48:36.281Z,59.80
2023-03-29T11:51:12.269Z,60.70
2023-03-29T11:53:47.932Z,59.90
2023-03-29T11:56:25.149Z,59.90
2023-03-29T11:58:59.845Z,59.60
2023-03-29T12:01:32.995Z,59.50
2023-03-29T12:04:06.848Z,59.40
2023-03-29T12:06:40.533Z,59.30
2023-03-29T12:09:16.895Z,59.30
2023-03-29T12:11:52.014Z,59.30
2023-03-29T12:14:27.366Z,59.20
2023-03-29T12:17:02.513Z,59.20
2023-03-29T12:19:33.025Z,59.20
2023-03-29T12:22:02.818Z,59.40
2023-03-29T12:24:33.618Z,59.40
2023-03-29T12:27:24.604Z,59.30
2023-03-29T12:30:17.404Z,59.30
2023-03-29T12:33:00.251Z,59.40
2023-03-29T12:35:34.250Z,59.40
2023-03-29T12:38:10.729Z,59.50
2023-03-29T12:40:43.291Z,59.50
2023-03-29T12:43:22.266Z,59.50
2023-03-29T12:45:56.204Z,59.50
2023-03-29T12:48:27.238Z,59.50
2023-03-29T12:51:01.455Z,59.50
2023-03-29T12:53:34.512Z,59.50
2023-03-29T12:56:15.688Z,59.50
2023-03-29T12:59:18.719Z,59.70
2023-03-29T13:02:00.581Z,60.00
2023-03-29T13:07:30.731Z,60.00
2023-03-29T13:10:00.670Z,59.90
2023-03-29T13:12:33.585Z,59.90
2023-03-29T13:15:07.206Z,59.70
2023-03-29T13:17:45.200Z,59.80
2023-03-29T13:20:27.809Z,59.80
2023-03-29T13:23:08.264Z,59.80
2023-03-29T13:26:08.140Z,59.80
2023-03-29T13:28:45.341Z,59.70
2023-03-29T13:31:28.808Z,59.80
2023-03-29T13:34:07.163Z,59.50
2023-03-29T13:36:52.267Z,59.30
2023-03-29T13:39:24.421Z,59.00
2023-03-29T13:41:54.290Z,58.90
2023-03-29T13:44:30.673Z,59.00
2023-03-29T13:47:29.157Z,58.90
2023-03-29T13:50:00.212Z,58.70
2023-03-29T13:52:31.919Z,58.70
2023-03-29T13:55:04.196Z,58.70
2023-03-29T13:57:38.082Z,58.70
2023-03-29T14:00:15.531Z,58.60
2023-03-29T14:02:49.656Z,58.70
2023-03-29T14:05:20.797Z,58.60
2023-03-29T14:07:53.055Z,58.60
2023-03-29T14:10:27.652Z,59.20
2023-03-29T14:12:57.954Z,58.50
2023-03-29T14:15:28.706Z,58.40
2023-03-29T14:18:00.963Z,58.20
2023-03-29T14:20:32.069Z,58.00
2023-03-29T14:23:00.434Z,57.90
2023-03-29T14:25:30.444Z,57.80
2023-03-29T14:27:58.971Z,57.70
2023-03-29T14:30:30.159Z,57.80
2023-03-29T14:33:00.188Z,57.80
2023-03-29T14:35:32.880Z,57.90
2023-03-29T14:38:02.066Z,58.00
2023-03-29T14:40:32.998Z,58.10
2023-03-29T14:43:05.378Z,58.20
2023-03-29T14:45:34.141Z,58.30
2023-03-29T14:48:03.915Z,58.30
2023-03-29T14:50:32.886Z,58.20
2023-03-29T14:53:02.552Z,58.20
2023-03-29T14:55:32.095Z,58.10
2023-03-29T14:58:01.290Z,58.10
2023-03-29T15:00:35.525Z,58.00
2023-03-29T15:03:05.589Z,57.70
2023-03-29T15:05:38.299Z,57.20
2023-03-29T15:08:09.985Z,57.40
2023-03-29T15:10:40.848Z,57.40
2023-03-29T15:13:16.551Z,57.20
2023-03-29T15:15:45.276Z,57.20
2023-03-29T15:18:17.903Z,57.20
2023-03-29T15:20:46.525Z,57.00
2023-03-29T15:23:26.449Z,57.10
2023-03-29T15:25:57.170Z,56.70
2023-03-29T15:28:29.096Z,56.30
2023-03-29T15:33:37.327Z,56.40
2023-03-29T15:36:07.734Z,56.60
2023-03-29T15:38:43.823Z,56.80
2023-03-29T15:41:14.730Z,56.80
2023-03-29T15:43:44.127Z,56.90
2023-03-29T15:46:13.423Z,56.90
2023-03-29T15:48:43.956Z,56.80
2023-03-29T15:51:13.475Z,57.00
2023-03-29T15:53:42.795Z,57.20
2023-03-29T15:56:16.101Z,57.30
2023-03-29T15:58:45.383Z,57.20
2023-03-29T16:01:24.015Z,57.20
2023-03-29T16:03:53.514Z,57.20
2023-03-29T16:06:24.347Z,57.20
2023-03-29T16:08:53.990Z,57.30
2023-03-29T16:11:24.460Z,57.50
2023-03-29T16:13:53.027Z,57.50
2023-03-29T16:16:21.695Z,57.50
2023-03-29T16:18:49.853Z,57.70
2023-03-29T16:21:23.205Z,57.70
2023-03-29T16:23:52.084Z,57.70
2023-03-29T16:26:20.149Z,57.80
2023-03-29T16:28:49.142Z,57.90
2023-03-29T16:31:17.267Z,58.00
2023-03-29T16:33:45.825Z,58.00
2023-03-29T16:36:13.943Z,58.10
2023-03-29T16:38:44.205Z,58.10
2023-03-29T16:41:16.325Z,58.30
2023-03-29T16:43:45.394Z,58.40
2023-03-29T16:47:07.915Z,57.90
2023-03-29T16:49:36.767Z,58.50
2023-03-29T16:52:07.100Z,58.60
2023-03-29T16:54:35.689Z,58.60
2023-03-29T16:57:03.832Z,58.70
2023-03-29T16:59:31.899Z,58.70
2023-03-29T17:02:00.553Z,58.80
2023-03-29T17:04:30.497Z,58.80
2023-03-29T17:06:58.610Z,58.80
2023-03-29T17:09:29.310Z,58.90
2023-03-29T17:11:58.900Z,59.00
2023-03-29T17:14:27.055Z,59.00
2023-03-29T17:16:55.424Z,59.00
2023-03-29T17:19:24.280Z,59.10
2023-03-29T17:21:53.833Z,59.20
2023-03-29T17:24:22.424Z,59.30
2023-03-29T17:26:51.002Z,59.30
2023-03-29T17:29:19.655Z,59.30
2023-03-29T17:31:48.229Z,59.40
2023-03-29T17:34:17.330Z,59.40
2023-03-29T17:36:46.646Z,59.50
2023-03-29T17:39:18.857Z,59.50
2023-03-29T17:41:49.131Z,59.60
2023-03-29T17:44:17.273Z,59.60
2023-03-29T17:46:45.441Z,59.60
2023-03-29T17:49:14.306Z,59.70
2023-03-29T17:51:42.464Z,59.70
2023-03-29T17:54:11.218Z,59.90
2023-03-29T17:56:40.895Z,59.90
2023-03-29T17:59:09.152Z,60.00
2023-03-29T18:01:39.264Z,60.00
2023-03-29T18:04:07.669Z,60.00
2023-03-29T18:06:36.076Z,60.10
2023-03-29T18:09:04.465Z,60.20
2023-03-29T18:11:32.630Z,60.50
2023-03-29T18:14:04.846Z,60.60
2023-03-29T18:16:33.282Z,60.70
2023-03-29T18:19:01.412Z,61.00
2023-03-29T18:21:30.094Z,60.70
2023-03-29T18:23:58.979Z,60.90
2023-03-29T18:26:29.014Z,60.90
2023-03-29T18:28:57.272Z,61.00
2023-03-29T18:31:28.087Z,61.00
2023-03-29T18:33:56.229Z,61.20
2023-03-29T18:36:25.872Z,61.10
2023-03-29T18:38:55.797Z,61.20
2023-03-29T18:41:26.592Z,61.40
2023-03-29T18:43:57.909Z,61.40
2023-03-29T18:46:31.634Z,61.60
2023-03-29T18:49:01.342Z,61.60
2023-03-29T18:51:31.371Z,61.60
2023-03-29T18:53:59.911Z,61.60
2023-03-29T18:56:28.458Z,61.60
2023-03-29T18:58:56.712Z,61.60
2023-03-29T19:01:25.285Z,61.70
2023-03-29T19:03:55.392Z,61.80
2023-03-29T19:06:24.477Z,62.00
2023-03-29T19:08:54.044Z,62.10
2023-03-29T19:11:23.492Z,62.10
2023-03-29T19:13:52.304Z,62.30
2023-03-29T19:16:21.149Z,62.30
2023-03-29T19:18:50.033Z,62.40
2023-03-29T19:21:19.959Z,62.40
2023-03-29T19:23:51.743Z,62.60
2023-03-29T19:26:20.321Z,62.50
2023-03-29T19:28:48.944Z,62.50
2023-03-29T19:31:17.081Z,62.40
2023-03-29T19:33:45.961Z,62.40
2023-03-29T19:36:14.815Z,62.40
2023-03-29T19:38:44.901Z,62.30
2023-03-29T19:41:13.547Z,62.30
2023-03-29T19:43:42.154Z,62.30
2023-03-29T19:46:12.328Z,62.90
2023-03-29T19:48:41.534Z,62.70
2023-03-29T19:51:09.882Z,63.10
2023-03-29T19:53:39.003Z,63.00
2023-03-29T19:56:11.293Z,62.90
2023-03-29T19:58:39.392Z,62.90
2023-03-29T20:01:08.024Z,62.90
2023-03-29T20:03:36.773Z,63.10
2023-03-29T20:06:05.184Z,63.30
2023-03-29T20:08:33.328Z,63.80
2023-03-29T20:11:06.039Z,63.80
2023-03-29T20:13:38.695Z,63.70
2023-03-29T20:16:08.858Z,63.90
2023-03-29T20:18:38.629Z,64.10
2023-03-29T20:21:07.605Z,64.20
2023-03-29T20:23:36.624Z,64.30
2023-03-29T20:26:05.228Z,64.70
2023-03-29T20:28:33.755Z,64.70
2023-03-29T20:31:07.621Z,64.80
2023-03-29T20:33:36.169Z,64.80
2023-03-29T20:36:04.669Z,64.60
2023-03-29T20:38:33.955Z,64.80
2023-03-29T20:41:02.915Z,65.20
2023-03-29T20:43:37.744Z,65.30
2023-03-29T20:46:14.951Z,65.40
2023-03-29T20:48:46.049Z,65.40
2023-03-29T20:51:15.014Z,65.30
2023-03-29T20:53:43.474Z,65.30
2023-03-29T20:56:13.587Z,65.40
2023-03-29T20:58:43.828Z,65.40
2023-03-29T21:01:14.723Z,65.50
2023-03-29T21:03:43.264Z,65.70
2023-03-29T21:06:14.496Z,65.70
2023-03-29T21:08:43.719Z,66.70
2023-03-29T21:11:14.535Z,65.70
2023-03-29T21:13:43.653Z,65.80
2023-03-29T21:16:14.001Z,65.70
2023-03-29T21:21:19.242Z,65.30
2023-03-29T21:23:47.769Z,65.80
2023-03-29T21:26:15.867Z,65.70
2023-03-29T21:28:43.936Z,65.90
2023-03-29T21:31:12.502Z,65.80
2023-03-29T21:33:40.578Z,65.70
2023-03-29T21:36:09.782Z,65.90
2023-03-29T21:38:39.305Z,65.80
2023-03-29T21:41:11.183Z,65.70
2023-03-29T21:43:39.252Z,65.70
2023-03-29T21:46:08.556Z,65.70
2023-03-29T21:48:37.053Z,65.70
2023-03-29T21:51:06.866Z,65.60
2023-03-29T21:53:35.338Z,65.80
2023-03-29T21:56:05.956Z,65.70
2023-03-29T21:58:33.967Z,65.70
2023-03-29T22:01:04.122Z,65.80
2023-03-29T22:03:32.956Z,65.90
2023-03-29T22:06:02.685Z,65.70
2023-03-29T22:08:30.827Z,65.80
2023-03-29T22:10:59.528Z,65.70
2023-03-29T22:13:29.967Z,65.70
2023-03-29T22:16:00.143Z,65.90
2023-03-29T22:18:30.446Z,65.70
2023-03-29T22:20:59.049Z,65.70
2023-03-29T22:23:27.814Z,65.70
2023-03-29T22:25:56.506Z,65.60
2023-03-29T22:28:24.620Z,65.70
2023-03-29T22:30:54.533Z,65.70
2023-03-29T22:33:22.610Z,65.70
2023-03-29T22:35:51.200Z,65.70
2023-03-29T22:38:19.337Z,65.60
2023-03-29T22:40:49.141Z,65.70
2023-03-29T22:43:17.372Z,65.70
2023-03-29T22:45:46.098Z,65.90
2023-03-29T22:48:16.131Z,65.70
2023-03-29T22:50:47.370Z,65.70
2023-03-29T22:53:16.553Z,65.80
2023-03-29T22:55:45.382Z,65.70
2023-03-29T22:58:14.016Z,65.70
2023-03-29T23:00:42.225Z,65.70
2023-03-29T23:03:11.026Z,65.80
2023-03-29T23:05:40.932Z,65.80
2023-03-29T23:08:09.600Z,65.90
2023-03-29T23:10:37.672Z,65.80
2023-03-29T23:13:10.015Z,65.90
2023-03-29T23:15:39.217Z,65.80
2023-03-29T23:18:07.905Z,65.90
2023-03-29T23:20:36.087Z,65.90
2023-03-29T23:23:05.546Z,65.90
2023-03-29T23:25:33.942Z,65.90
2023-03-29T23:28:02.033Z,65.90
2023-03-29T23:30:31.383Z,65.90
2023-03-29T23:33:00.617Z,66.00
2023-03-29T23:35:28.750Z,66.00
2023-03-29T23:37:57.562Z,66.00
2023-03-29T23:40:27.865Z,66.00
2023-03-29T23:42:59.913Z,66.00
2023-03-29T23:45:29.177Z,66.00
2023-03-29T23:47:58.212Z,66.00
2023-03-29T23:50:28.568Z,66.00
2023-03-29T23:52:58.839Z,66.90
2023-03-29T23:55:28.304Z,66.00
2023-03-29T23:57:56.587Z,66.00
